Terminal Aerodrome Forecast
Issued by NWS

Home | Current Version | Previous Version | Text Only | Print | Product List | Glossary On
Versions: 1 2 3 4 5 6 7 8 9 10 11 12 13 14 15 16
226
FTUS45 KTFX 070805 AAA
TAFHVR
TAF AMD
KHVR 070805Z 0708/0806 28014KT P6SM SCT100 BKN140
     FM071300 27013KT P6SM SCT140
     FM080300 26006KT P6SM BKN150=

USA.gov is the U.S. government's official web portal to all federal, state and local government web resources and services.